createdAt,value
2023-03-11T00:01:26.689Z,4.08
2023-03-11T00:06:28.062Z,4.01
2023-03-11T00:11:29.423Z,4.19
2023-03-11T00:16:30.956Z,4.04
2023-03-11T00:21:32.367Z,4.21
2023-03-11T00:26:33.854Z,3.92
2023-03-11T00:31:35.262Z,3.97
2023-03-11T00:36:36.630Z,3.84
2023-03-11T00:41:37.995Z,3.96
2023-03-11T00:46:39.365Z,3.92
2023-03-11T00:51:40.756Z,4.00
2023-03-11T00:56:42.208Z,4.02
2023-03-11T01:01:43.702Z,3.89
2023-03-11T01:06:45.913Z,3.57
2023-03-11T01:11:47.597Z,3.93
2023-03-11T01:16:48.991Z,4.05
2023-03-11T01:21:50.416Z,4.20
2023-03-11T01:26:51.758Z,4.11
2023-03-11T01:31:53.371Z,4.06
2023-03-11T01:36:54.807Z,4.15
2023-03-11T01:41:56.391Z,3.93
2023-03-11T01:46:57.796Z,4.24
2023-03-11T01:52:02.548Z,4.28
2023-03-11T01:57:09.519Z,4.24
2023-03-11T02:02:22.694Z,4.27
2023-03-11T02:07:24.246Z,4.35
2023-03-11T02:12:28.616Z,4.14
2023-03-11T02:17:30.586Z,4.11
2023-03-11T02:22:32.253Z,4.27
2023-03-11T02:27:35.969Z,4.19
2023-03-11T02:32:37.870Z,4.17
2023-03-11T02:37:44.087Z,3.86
2023-03-11T02:42:45.588Z,3.69
2023-03-11T02:47:46.967Z,3.83
2023-03-11T02:52:49.777Z,4.01
2023-03-11T02:57:51.168Z,3.94
2023-03-11T03:02:52.568Z,3.90
2023-03-11T03:07:54.027Z,3.85
2023-03-11T03:12:55.369Z,3.88
2023-03-11T03:17:56.760Z,3.89
2023-03-11T03:22:58.239Z,3.84
2023-03-11T03:27:59.744Z,3.83
2023-03-11T03:33:01.122Z,4.04
2023-03-11T03:38:02.532Z,4.12
2023-03-11T03:43:04.178Z,3.98
2023-03-11T03:48:05.883Z,4.06
2023-03-11T03:53:07.291Z,4.03
2023-03-11T03:58:08.638Z,3.96
2023-03-11T04:03:10.064Z,3.94
2023-03-11T04:08:11.405Z,4.06
2023-03-11T04:13:12.754Z,4.12
2023-03-11T04:18:14.369Z,3.97
2023-03-11T04:23:16.099Z,3.92
2023-03-11T04:28:17.433Z,3.91
2023-03-11T04:33:19.089Z,3.97
2023-03-11T04:38:20.437Z,3.90
2023-03-11T04:43:21.836Z,3.83
2023-03-11T04:48:23.196Z,3.94
2023-03-11T04:53:24.553Z,3.81
2023-03-11T04:58:26.022Z,3.65
2023-03-11T05:03:27.438Z,3.74
2023-03-11T05:08:28.782Z,3.55
2023-03-11T05:13:30.196Z,3.63
2023-03-11T05:18:31.630Z,3.50
2023-03-11T05:23:33.009Z,3.49
2023-03-11T05:28:34.418Z,3.52
2023-03-11T05:33:35.882Z,3.44
2023-03-11T05:38:37.416Z,3.31
2023-03-11T05:43:38.792Z,3.14
2023-03-11T05:48:40.181Z,2.88
2023-03-11T05:53:45.737Z,2.88
2023-03-11T05:58:47.112Z,2.75
2023-03-11T06:03:48.545Z,2.76
2023-03-11T06:08:50.075Z,2.80
2023-03-11T06:13:55.432Z,2.84
2023-03-11T06:18:56.826Z,2.86
2023-03-11T06:23:58.307Z,2.80
2023-03-11T06:28:59.681Z,2.86
2023-03-11T06:34:00.965Z,2.83
2023-03-11T06:39:02.434Z,2.89
2023-03-11T06:44:03.809Z,3.02
2023-03-11T06:49:05.166Z,3.01
2023-03-11T06:54:06.665Z,3.18
2023-03-11T06:59:08.068Z,3.01
2023-03-11T07:04:10.489Z,3.09
2023-03-11T07:09:11.926Z,3.34
2023-03-11T07:14:13.270Z,3.44
2023-03-11T07:19:14.875Z,4.13
2023-03-11T07:24:16.333Z,4.56
2023-03-11T07:29:17.742Z,4.35
2023-03-11T07:34:19.094Z,5.30
2023-03-11T07:39:20.771Z,5.53
2023-03-11T07:44:22.529Z,5.08
2023-03-11T07:49:23.956Z,5.55
2023-03-11T07:54:25.381Z,5.46
2023-03-11T07:59:26.890Z,5.38
2023-03-11T08:04:28.264Z,5.19
2023-03-11T08:09:29.594Z,5.91
2023-03-11T08:14:30.978Z,5.09
2023-03-11T08:19:32.392Z,5.56
2023-03-11T08:24:33.780Z,5.95
2023-03-11T08:29:35.325Z,5.85
2023-03-11T08:34:37.256Z,5.23
2023-03-11T08:39:38.866Z,5.21
2023-03-11T08:44:41.041Z,5.44
2023-03-11T08:49:42.591Z,5.06
2023-03-11T08:54:43.905Z,5.79
2023-03-11T08:59:45.255Z,6.62
2023-03-11T09:04:46.621Z,6.30
2023-03-11T09:09:48.028Z,5.98
2023-03-11T09:14:49.448Z,6.95
2023-03-11T09:19:50.832Z,6.95
2023-03-11T09:24:52.236Z,6.61
2023-03-11T09:29:53.617Z,5.60
2023-03-11T09:34:55.028Z,5.59
2023-03-11T09:39:56.399Z,6.23
2023-03-11T09:45:02.525Z,5.27
2023-03-11T09:50:13.383Z,5.39
2023-03-11T09:55:26.874Z,5.78
2023-03-11T10:00:28.299Z,5.19
2023-03-11T10:05:29.934Z,5.56
2023-03-11T10:10:34.817Z,5.98
2023-03-11T10:15:38.384Z,5.68
2023-03-11T10:20:55.631Z,5.57
2023-03-11T10:26:08.572Z,5.22
2023-03-11T10:31:10.126Z,6.20
2023-03-11T10:36:14.280Z,6.03
2023-03-11T10:41:38.881Z,5.64
2023-03-11T10:46:40.335Z,6.40
2023-03-11T10:51:45.170Z,5.93
2023-03-11T10:56:49.913Z,5.46
2023-03-11T11:01:56.108Z,6.04
2023-03-11T11:06:57.928Z,6.41
2023-03-11T11:12:02.020Z,5.25
2023-03-11T11:17:03.423Z,5.17
2023-03-11T11:22:05.074Z,5.81
2023-03-11T11:27:16.167Z,5.33
2023-03-11T11:32:26.951Z,5.71
2023-03-11T11:37:30.256Z,5.43
2023-03-11T11:42:31.756Z,6.04
2023-03-11T11:47:34.277Z,5.65
2023-03-11T11:52:43.123Z,6.22
2023-03-11T11:57:46.512Z,6.11
2023-03-11T12:02:47.908Z,5.83
2023-03-11T12:07:57.295Z,6.15
2023-03-11T12:13:01.692Z,6.20
2023-03-11T12:18:06.128Z,6.23
2023-03-11T12:23:24.791Z,6.47
2023-03-11T12:28:35.394Z,6.12
2023-03-11T12:33:42.971Z,5.46
2023-03-11T12:38:47.071Z,6.00
2023-03-11T12:43:48.387Z,5.96
2023-03-11T12:49:05.322Z,6.57
2023-03-11T12:54:28.643Z,6.07
2023-03-11T12:59:32.711Z,6.15
2023-03-11T13:04:37.086Z,5.97
2023-03-11T13:09:38.762Z,6.24
2023-03-11T13:14:40.185Z,6.31
2023-03-11T13:19:49.196Z,6.46
2023-03-11T13:24:50.912Z,5.99
2023-03-11T13:30:00.159Z,6.22
2023-03-11T13:35:20.217Z,6.29
2023-03-11T13:40:41.345Z,6.57
2023-03-11T13:45:47.373Z,6.32
2023-03-11T13:50:55.092Z,6.37
2023-03-11T13:55:56.696Z,6.38
2023-03-11T14:00:59.501Z,6.34
2023-03-11T14:06:04.149Z,6.41
2023-03-11T14:11:08.491Z,6.46
2023-03-11T14:16:28.845Z,6.38
2023-03-11T14:21:30.740Z,6.51
2023-03-11T14:26:34.116Z,6.87
2023-03-11T14:31:36.834Z,6.24
2023-03-11T14:36:41.239Z,5.65
2023-03-11T14:41:42.578Z,6.31
2023-03-11T14:46:45.304Z,6.55
2023-03-11T14:51:49.010Z,6.39
2023-03-11T14:56:54.354Z,6.38
2023-03-11T15:01:57.911Z,6.19
2023-03-11T15:07:00.013Z,6.19
2023-03-11T15:12:02.593Z,6.58
2023-03-11T15:17:32.973Z,6.14
2023-03-11T15:22:39.290Z,6.24
2023-03-11T15:27:40.759Z,6.28
2023-03-11T15:32:45.943Z,6.22
2023-03-11T15:37:48.291Z,6.12
2023-03-11T15:43:09.717Z,6.01
2023-03-11T15:48:12.474Z,5.90
2023-03-11T15:53:13.856Z,5.95
2023-03-11T15:58:16.186Z,5.98
2023-03-11T16:03:18.004Z,5.95
2023-03-11T16:08:19.616Z,5.88
2023-03-11T16:13:20.982Z,5.75
2023-03-11T16:18:22.296Z,5.73
2023-03-11T16:23:25.364Z,5.66
2023-03-11T16:28:26.941Z,5.70
2023-03-11T16:33:28.285Z,5.68
2023-03-11T16:38:30.021Z,5.67
2023-03-11T16:43:31.636Z,5.57
2023-03-11T16:48:33.324Z,5.47
2023-03-11T16:53:34.784Z,5.36
2023-03-11T16:58:36.151Z,5.24
2023-03-11T17:03:42.544Z,5.24
2023-03-11T17:08:44.414Z,5.08
2023-03-11T17:13:45.915Z,4.92
2023-03-11T17:18:47.242Z,4.83
2023-03-11T17:23:48.608Z,4.66
2023-03-11T17:28:50.017Z,4.54
2023-03-11T17:33:51.422Z,4.44
2023-03-11T17:38:53.821Z,4.26
2023-03-11T17:43:55.205Z,4.17
2023-03-11T17:48:56.587Z,3.71
2023-03-11T17:53:58.062Z,3.59
2023-03-11T17:58:59.577Z,3.55
2023-03-11T18:04:00.961Z,3.49
2023-03-11T18:09:02.382Z,3.43
2023-03-11T18:14:03.760Z,3.32
2023-03-11T18:19:05.594Z,3.09
2023-03-11T18:24:07.106Z,3.08
2023-03-11T18:29:08.480Z,2.95
2023-03-11T18:34:09.972Z,2.75
2023-03-11T18:39:11.494Z,2.74
2023-03-11T18:44:12.985Z,2.78
2023-03-11T18:49:14.365Z,2.62
2023-03-11T18:54:15.702Z,2.68
2023-03-11T18:59:17.187Z,2.46
2023-03-11T19:04:18.744Z,2.59
2023-03-11T19:09:20.172Z,2.54
2023-03-11T19:14:21.550Z,2.48
2023-03-11T19:19:23.020Z,2.32
2023-03-11T19:24:24.363Z,2.49
2023-03-11T19:29:25.716Z,2.45
2023-03-11T19:34:27.169Z,2.17
2023-03-11T19:39:28.545Z,2.08
2023-03-11T19:44:30.014Z,2.07
2023-03-11T19:49:31.470Z,1.80
2023-03-11T19:54:32.881Z,1.83
2023-03-11T19:59:34.504Z,1.81
2023-03-11T20:04:35.865Z,1.92
2023-03-11T20:09:37.320Z,1.86
2023-03-11T20:14:38.736Z,2.06
2023-03-11T20:19:40.207Z,1.93
2023-03-11T20:24:41.718Z,1.85
2023-03-11T20:29:43.138Z,1.86
2023-03-11T20:34:44.601Z,1.76
2023-03-11T20:39:46.033Z,1.87
2023-03-11T20:44:51.113Z,1.72
2023-03-11T20:49:52.502Z,1.81
2023-03-11T20:54:53.916Z,1.53
2023-03-11T20:59:55.330Z,1.11
2023-03-11T21:04:56.706Z,1.18
2023-03-11T21:09:58.156Z,1.34
2023-03-11T21:14:59.803Z,1.41
2023-03-11T21:20:01.336Z,1.21
2023-03-11T21:25:02.939Z,1.17
2023-03-11T21:30:04.568Z,1.41
2023-03-11T21:35:05.984Z,1.10
2023-03-11T21:40:07.745Z,1.11
2023-03-11T21:45:09.549Z,1.28
2023-03-11T21:50:11.525Z,1.36
2023-03-11T21:55:13.145Z,1.29
2023-03-11T22:00:14.786Z,0.89
2023-03-11T22:05:16.448Z,0.62
2023-03-11T22:10:18.118Z,0.51
2023-03-11T22:15:19.587Z,0.75
2023-03-11T22:20:21.042Z,0.93
2023-03-11T22:25:22.543Z,0.82
2023-03-11T22:30:23.987Z,0.91
2023-03-11T22:35:25.400Z,0.96
2023-03-11T22:40:29.312Z,0.49
2023-03-11T22:45:30.728Z,0.48
2023-03-11T22:50:32.227Z,0.50
2023-03-11T22:55:33.700Z,0.53
2023-03-11T23:00:35.583Z,0.46
2023-03-11T23:05:37.258Z,0.65
2023-03-11T23:10:42.504Z,0.81
2023-03-11T23:15:44.572Z,0.52
2023-03-11T23:20:45.917Z,0.42
2023-03-11T23:25:47.267Z,0.57
2023-03-11T23:30:48.698Z,0.43
2023-03-11T23:35:50.075Z,0.47
2023-03-11T23:40:51.510Z,0.73
2023-03-11T23:45:53.038Z,0.78
2023-03-11T23:50:54.418Z,0.62
2023-03-11T23:55:55.779Z,0.56
